sensor_id;sensor_type;location;lat;lon;timestamp;P1;durP1;ratioP1;P2;durP2;ratioP2
31095;SDS011;17749;51.962;8.560;2023-05-10T05:02:07;5.28;;;2.72;;
31095;SDS011;17749;51.962;8.560;2023-05-10T05:04:34;2.95;;;2.55;;
31095;SDS011;17749;51.962;8.560;2023-05-10T05:07:01;3.13;;;2.53;;
31095;SDS011;17749;51.962;8.560;2023-05-10T05:09:28;2.75;;;2.38;;
31095;SDS011;17749;51.962;8.560;2023-05-10T05:11:55;3.60;;;3.08;;
31095;SDS011;17749;51.962;8.560;2023-05-10T05:14:22;3.65;;;2.60;;
31095;SDS011;17749;51.962;8.560;2023-05-10T05:16:51;4.17;;;2.60;;
31095;SDS011;17749;51.962;8.560;2023-05-10T05:19:19;5.18;;;2.60;;
31095;SDS011;17749;51.962;8.560;2023-05-10T05:21:46;2.63;;;2.30;;
31095;SDS011;17749;51.962;8.560;2023-05-10T05:24:13;4.07;;;3.20;;
31095;SDS011;17749;51.962;8.560;2023-05-10T05:26:40;3.50;;;2.65;;
31095;SDS011;17749;51.962;8.560;2023-05-10T05:29:07;4.70;;;2.65;;
31095;SDS011;17749;51.962;8.560;2023-05-10T05:31:33;4.47;;;2.85;;
31095;SDS011;17749;51.962;8.560;2023-05-10T05:34:00;5.22;;;2.75;;
31095;SDS011;17749;51.962;8.560;2023-05-10T05:36:27;5.35;;;2.85;;
31095;SDS011;17749;51.962;8.560;2023-05-10T05:38:54;3.75;;;2.85;;
31095;SDS011;17749;51.962;8.560;2023-05-10T05:41:21;4.18;;;3.05;;
31095;SDS011;17749;51.962;8.560;2023-05-10T05:43:48;3.90;;;2.60;;
31095;SDS011;17749;51.962;8.560;2023-05-10T05:46:16;4.53;;;3.28;;
31095;SDS011;17749;51.962;8.560;2023-05-10T05:48:43;4.38;;;2.90;;
31095;SDS011;17749;51.962;8.560;2023-05-10T05:51:10;3.58;;;3.13;;
31095;SDS011;17749;51.962;8.560;2023-05-10T05:53:37;6.53;;;4.50;;
31095;SDS011;17749;51.962;8.560;2023-05-10T05:56:04;4.95;;;4.45;;
31095;SDS011;17749;51.962;8.560;2023-05-10T05:58:30;4.30;;;3.90;;
31095;SDS011;17749;51.962;8.560;2023-05-10T06:00:57;5.30;;;3.92;;
31095;SDS011;17749;51.962;8.560;2023-05-10T06:03:24;4.40;;;3.50;;
31095;SDS011;17749;51.962;8.560;2023-05-10T06:05:51;2.83;;;2.35;;
31095;SDS011;17749;51.962;8.560;2023-05-10T06:08:18;5.30;;;2.65;;
31095;SDS011;17749;51.962;8.560;2023-05-10T06:10:45;5.18;;;2.55;;
31095;SDS011;17749;51.962;8.560;2023-05-10T06:13:12;3.20;;;2.90;;
31095;SDS011;17749;51.962;8.560;2023-05-10T06:15:39;3.40;;;2.40;;
31095;SDS011;17749;51.962;8.560;2023-05-10T06:18:06;3.75;;;2.65;;
31095;SDS011;17749;51.962;8.560;2023-05-10T06:20:33;5.47;;;2.90;;
31095;SDS011;17749;51.962;8.560;2023-05-10T06:23:00;3.58;;;2.40;;
31095;SDS011;17749;51.962;8.560;2023-05-10T06:25:27;3.45;;;2.13;;
31095;SDS011;17749;51.962;8.560;2023-05-10T06:27:54;3.78;;;2.60;;
31095;SDS011;17749;51.962;8.560;2023-05-10T06:30:24;3.88;;;2.53;;
31095;SDS011;17749;51.962;8.560;2023-05-10T06:32:55;4.95;;;2.92;;
31095;SDS011;17749;51.962;8.560;2023-05-10T06:35:22;3.42;;;2.85;;
31095;SDS011;17749;51.962;8.560;2023-05-10T06:37:50;4.53;;;2.55;;
31095;SDS011;17749;51.962;8.560;2023-05-10T06:40:17;4.20;;;3.00;;
31095;SDS011;17749;51.962;8.560;2023-05-10T06:42:45;5.20;;;3.00;;
31095;SDS011;17749;51.962;8.560;2023-05-10T06:45:13;3.88;;;3.08;;
31095;SDS011;17749;51.962;8.560;2023-05-10T06:47:41;5.60;;;3.77;;
31095;SDS011;17749;51.962;8.560;2023-05-10T06:50:09;4.68;;;3.30;;
31095;SDS011;17749;51.962;8.560;2023-05-10T06:52:37;3.73;;;3.30;;
31095;SDS011;17749;51.962;8.560;2023-05-10T06:55:05;4.90;;;3.95;;
31095;SDS011;17749;51.962;8.560;2023-05-10T06:57:32;6.20;;;3.65;;
31095;SDS011;17749;51.962;8.560;2023-05-10T06:59:59;5.05;;;3.42;;
31095;SDS011;17749;51.962;8.560;2023-05-10T07:02:26;5.20;;;3.28;;
31095;SDS011;17749;51.962;8.560;2023-05-10T07:04:54;5.15;;;4.13;;
31095;SDS011;17749;51.962;8.560;2023-05-10T07:07:22;4.20;;;3.33;;
31095;SDS011;17749;51.962;8.560;2023-05-10T07:09:48;5.20;;;4.05;;
31095;SDS011;17749;51.962;8.560;2023-05-10T07:12:16;5.78;;;3.58;;
31095;SDS011;17749;51.962;8.560;2023-05-10T07:14:43;4.63;;;3.70;;
31095;SDS011;17749;51.962;8.560;2023-05-10T07:17:10;4.85;;;3.10;;
31095;SDS011;17749;51.962;8.560;2023-05-10T07:19:37;6.82;;;3.92;;
31095;SDS011;17749;51.962;8.560;2023-05-10T07:22:03;8.00;;;4.10;;
31095;SDS011;17749;51.962;8.560;2023-05-10T07:24:31;5.90;;;3.88;;
31095;SDS011;17749;51.962;8.560;2023-05-10T07:26:58;6.05;;;4.13;;
31095;SDS011;17749;51.962;8.560;2023-05-10T07:29:25;6.43;;;4.10;;
31095;SDS011;17749;51.962;8.560;2023-05-10T07:31:52;6.60;;;4.45;;
31095;SDS011;17749;51.962;8.560;2023-05-10T07:34:22;5.88;;;4.80;;
31095;SDS011;17749;51.962;8.560;2023-05-10T07:36:49;8.70;;;5.55;;
31095;SDS011;17749;51.962;8.560;2023-05-10T07:39:15;8.63;;;5.30;;
31095;SDS011;17749;51.962;8.560;2023-05-10T07:41:52;8.73;;;5.82;;
31095;SDS011;17749;51.962;8.560;2023-05-10T07:44:19;11.45;;;6.38;;
31095;SDS011;17749;51.962;8.560;2023-05-10T07:46:46;8.27;;;6.15;;
31095;SDS011;17749;51.962;8.560;2023-05-10T07:49:14;9.98;;;6.75;;
31095;SDS011;17749;51.962;8.560;2023-05-10T07:51:41;9.63;;;6.68;;
31095;SDS011;17749;51.962;8.560;2023-05-10T07:54:08;12.35;;;7.45;;
31095;SDS011;17749;51.962;8.560;2023-05-10T07:56:35;13.52;;;8.18;;
31095;SDS011;17749;51.962;8.560;2023-05-10T07:59:03;13.90;;;7.47;;
31095;SDS011;17749;51.962;8.560;2023-05-10T08:01:31;16.80;;;9.37;;
31095;SDS011;17749;51.962;8.560;2023-05-10T08:03:59;15.55;;;9.40;;
31095;SDS011;17749;51.962;8.560;2023-05-10T08:06:26;16.70;;;10.60;;
31095;SDS011;17749;51.962;8.560;2023-05-10T08:08:54;18.10;;;10.13;;
31095;SDS011;17749;51.962;8.560;2023-05-10T08:11:22;19.48;;;11.10;;
31095;SDS011;17749;51.962;8.560;2023-05-10T08:13:49;17.52;;;10.38;;
31095;SDS011;17749;51.962;8.560;2023-05-10T08:16:17;18.30;;;10.57;;
31095;SDS011;17749;51.962;8.560;2023-05-10T08:18:44;23.73;;;12.00;;
31095;SDS011;17749;51.962;8.560;2023-05-10T08:21:13;22.13;;;10.52;;
31095;SDS011;17749;51.962;8.560;2023-05-10T08:23:41;23.08;;;12.70;;
31095;SDS011;17749;51.962;8.560;2023-05-10T08:26:09;21.70;;;12.52;;
31095;SDS011;17749;51.962;8.560;2023-05-10T08:28:37;24.42;;;14.10;;
31095;SDS011;17749;51.962;8.560;2023-05-10T08:31:04;26.17;;;14.52;;
31095;SDS011;17749;51.962;8.560;2023-05-10T08:33:31;25.88;;;14.90;;
31095;SDS011;17749;51.962;8.560;2023-05-10T08:35:58;28.52;;;16.05;;
31095;SDS011;17749;51.962;8.560;2023-05-10T08:38:25;23.02;;;13.68;;
31095;SDS011;17749;51.962;8.560;2023-05-10T08:40:53;21.83;;;13.98;;
31095;SDS011;17749;51.962;8.560;2023-05-10T08:43:26;24.50;;;14.80;;
31095;SDS011;17749;51.962;8.560;2023-05-10T08:48:23;19.45;;;13.18;;
31095;SDS011;17749;51.962;8.560;2023-05-10T08:50:52;20.85;;;13.82;;
31095;SDS011;17749;51.962;8.560;2023-05-10T08:53:23;24.58;;;14.40;;
31095;SDS011;17749;51.962;8.560;2023-05-10T08:55:53;21.77;;;13.35;;
31095;SDS011;17749;51.962;8.560;2023-05-10T08:58:20;22.85;;;13.73;;
31095;SDS011;17749;51.962;8.560;2023-05-10T09:00:48;23.58;;;13.88;;
31095;SDS011;17749;51.962;8.560;2023-05-10T09:03:17;23.35;;;14.13;;
31095;SDS011;17749;51.962;8.560;2023-05-10T09:05:44;20.67;;;13.40;;
31095;SDS011;17749;51.962;8.560;2023-05-10T09:08:12;26.45;;;14.63;;
31095;SDS011;17749;51.962;8.560;2023-05-10T09:10:42;23.48;;;13.50;;
31095;SDS011;17749;51.962;8.560;2023-05-10T09:13:10;23.77;;;14.35;;
31095;SDS011;17749;51.962;8.560;2023-05-10T09:15:38;23.75;;;14.73;;
31095;SDS011;17749;51.962;8.560;2023-05-10T09:18:05;22.98;;;13.95;;
31095;SDS011;17749;51.962;8.560;2023-05-10T09:20:32;22.75;;;14.80;;
31095;SDS011;17749;51.962;8.560;2023-05-10T09:22:59;21.17;;;13.90;;
31095;SDS011;17749;51.962;8.560;2023-05-10T09:25:26;23.73;;;14.90;;
31095;SDS011;17749;51.962;8.560;2023-05-10T09:27:53;25.50;;;14.73;;
31095;SDS011;17749;51.962;8.560;2023-05-10T09:32:53;32.33;;;17.13;;
31095;SDS011;17749;51.962;8.560;2023-05-10T09:35:22;22.98;;;15.25;;
31095;SDS011;17749;51.962;8.560;2023-05-10T09:37:54;25.60;;;15.88;;
31095;SDS011;17749;51.962;8.560;2023-05-10T09:40:24;25.27;;;15.60;;
31095;SDS011;17749;51.962;8.560;2023-05-10T09:45:22;29.85;;;16.65;;
31095;SDS011;17749;51.962;8.560;2023-05-10T09:47:49;27.67;;;15.67;;
31095;SDS011;17749;51.962;8.560;2023-05-10T09:50:17;26.05;;;16.67;;
31095;SDS011;17749;51.962;8.560;2023-05-10T09:52:55;25.52;;;16.88;;
31095;SDS011;17749;51.962;8.560;2023-05-10T09:58:02;24.35;;;14.80;;
31095;SDS011;17749;51.962;8.560;2023-05-10T10:00:34;26.73;;;15.27;;
31095;SDS011;17749;51.962;8.560;2023-05-10T10:03:05;22.38;;;14.32;;
31095;SDS011;17749;51.962;8.560;2023-05-10T10:05:34;21.98;;;14.55;;
31095;SDS011;17749;51.962;8.560;2023-05-10T10:08:03;22.77;;;14.20;;
31095;SDS011;17749;51.962;8.560;2023-05-10T10:10:31;21.77;;;14.13;;
31095;SDS011;17749;51.962;8.560;2023-05-10T10:12:59;21.48;;;13.95;;
31095;SDS011;17749;51.962;8.560;2023-05-10T10:15:26;20.83;;;14.02;;
31095;SDS011;17749;51.962;8.560;2023-05-10T10:17:53;25.02;;;15.32;;
31095;SDS011;17749;51.962;8.560;2023-05-10T10:20:21;22.15;;;14.77;;
31095;SDS011;17749;51.962;8.560;2023-05-10T10:22:49;21.88;;;13.75;;
31095;SDS011;17749;51.962;8.560;2023-05-10T10:25:16;17.27;;;11.98;;
31095;SDS011;17749;51.962;8.560;2023-05-10T10:27:48;16.40;;;11.07;;
31095;SDS011;17749;51.962;8.560;2023-05-10T10:35:54;15.57;;;8.88;;
31095;SDS011;17749;51.962;8.560;2023-05-10T10:38:24;12.55;;;8.07;;
31095;SDS011;17749;51.962;8.560;2023-05-10T10:41:01;12.05;;;8.20;;
31095;SDS011;17749;51.962;8.560;2023-05-10T10:43:29;13.77;;;8.30;;
31095;SDS011;17749;51.962;8.560;2023-05-10T10:46:15;19.85;;;9.35;;
31095;SDS011;17749;51.962;8.560;2023-05-10T10:48:47;12.38;;;8.27;;
31095;SDS011;17749;51.962;8.560;2023-05-10T10:51:15;12.55;;;8.38;;
31095;SDS011;17749;51.962;8.560;2023-05-10T10:53:43;15.20;;;8.80;;
31095;SDS011;17749;51.962;8.560;2023-05-10T10:56:11;14.20;;;8.68;;
31095;SDS011;17749;51.962;8.560;2023-05-10T10:58:40;11.40;;;7.72;;
31095;SDS011;17749;51.962;8.560;2023-05-10T11:03:38;11.52;;;7.32;;
31095;SDS011;17749;51.962;8.560;2023-05-10T11:06:05;10.75;;;7.75;;
31095;SDS011;17749;51.962;8.560;2023-05-10T11:08:32;9.80;;;7.22;;
31095;SDS011;17749;51.962;8.560;2023-05-10T11:11:04;11.20;;;7.55;;
31095;SDS011;17749;51.962;8.560;2023-05-10T11:13:43;8.60;;;6.20;;
31095;SDS011;17749;51.962;8.560;2023-05-10T11:16:22;12.20;;;6.90;;
31095;SDS011;17749;51.962;8.560;2023-05-10T11:18:54;9.48;;;6.00;;
31095;SDS011;17749;51.962;8.560;2023-05-10T11:21:25;8.15;;;5.55;;
31095;SDS011;17749;51.962;8.560;2023-05-10T11:23:53;10.05;;;4.93;;
31095;SDS011;17749;51.962;8.560;2023-05-10T11:26:25;11.98;;;5.70;;
31095;SDS011;17749;51.962;8.560;2023-05-10T11:29:00;8.18;;;5.28;;
31095;SDS011;17749;51.962;8.560;2023-05-10T11:31:28;6.97;;;4.90;;
31095;SDS011;17749;51.962;8.560;2023-05-10T11:33:56;9.00;;;5.95;;
31095;SDS011;17749;51.962;8.560;2023-05-10T11:36:25;10.68;;;5.78;;
31095;SDS011;17749;51.962;8.560;2023-05-10T11:38:59;7.35;;;5.18;;
31095;SDS011;17749;51.962;8.560;2023-05-10T11:41:27;10.35;;;5.15;;
31095;SDS011;17749;51.962;8.560;2023-05-10T11:43:55;7.97;;;5.60;;
31095;SDS011;17749;51.962;8.560;2023-05-10T11:46:24;7.32;;;4.78;;
31095;SDS011;17749;51.962;8.560;2023-05-10T11:49:00;7.22;;;5.25;;
31095;SDS011;17749;51.962;8.560;2023-05-10T11:51:32;9.48;;;4.63;;
31095;SDS011;17749;51.962;8.560;2023-05-10T11:54:00;7.57;;;4.95;;
31095;SDS011;17749;51.962;8.560;2023-05-10T11:56:32;9.00;;;4.80;;
31095;SDS011;17749;51.962;8.560;2023-05-10T11:58:59;8.25;;;5.28;;
31095;SDS011;17749;51.962;8.560;2023-05-10T12:01:28;9.27;;;6.28;;
31095;SDS011;17749;51.962;8.560;2023-05-10T12:03:56;10.40;;;6.63;;
31095;SDS011;17749;51.962;8.560;2023-05-10T12:06:27;9.98;;;6.82;;
31095;SDS011;17749;51.962;8.560;2023-05-10T12:08:57;16.55;;;9.40;;
31095;SDS011;17749;51.962;8.560;2023-05-10T12:11:25;17.30;;;9.95;;
31095;SDS011;17749;51.962;8.560;2023-05-10T12:13:54;15.07;;;8.88;;
31095;SDS011;17749;51.962;8.560;2023-05-10T12:16:23;12.18;;;7.03;;
31095;SDS011;17749;51.962;8.560;2023-05-10T12:18:52;9.77;;;6.70;;
31095;SDS011;17749;51.962;8.560;2023-05-10T12:21:20;10.77;;;7.60;;
31095;SDS011;17749;51.962;8.560;2023-05-10T12:23:49;11.68;;;7.15;;
31095;SDS011;17749;51.962;8.560;2023-05-10T12:26:18;13.27;;;8.20;;
31095;SDS011;17749;51.962;8.560;2023-05-10T12:28:48;14.65;;;7.93;;
31095;SDS011;17749;51.962;8.560;2023-05-10T12:31:15;11.68;;;7.35;;
31095;SDS011;17749;51.962;8.560;2023-05-10T12:33:42;11.45;;;7.93;;
31095;SDS011;17749;51.962;8.560;2023-05-10T12:38:39;13.07;;;7.07;;
31095;SDS011;17749;51.962;8.560;2023-05-10T12:41:10;14.90;;;8.57;;
31095;SDS011;17749;51.962;8.560;2023-05-10T12:46:07;12.63;;;8.93;;
31095;SDS011;17749;51.962;8.560;2023-05-10T12:48:41;15.93;;;9.73;;
31095;SDS011;17749;51.962;8.560;2023-05-10T12:51:09;16.75;;;10.13;;
31095;SDS011;17749;51.962;8.560;2023-05-10T12:53:38;15.40;;;10.40;;
31095;SDS011;17749;51.962;8.560;2023-05-10T12:56:09;15.73;;;9.48;;
31095;SDS011;17749;51.962;8.560;2023-05-10T12:58:38;14.82;;;10.18;;
31095;SDS011;17749;51.962;8.560;2023-05-10T13:01:05;15.10;;;9.40;;
31095;SDS011;17749;51.962;8.560;2023-05-10T13:03:32;16.05;;;9.48;;
31095;SDS011;17749;51.962;8.560;2023-05-10T13:05:59;18.75;;;10.43;;
31095;SDS011;17749;51.962;8.560;2023-05-10T13:08:26;17.13;;;11.07;;
31095;SDS011;17749;51.962;8.560;2023-05-10T13:10:53;13.80;;;10.18;;
31095;SDS011;17749;51.962;8.560;2023-05-10T13:13:20;14.13;;;9.65;;
31095;SDS011;17749;51.962;8.560;2023-05-10T13:15:47;15.68;;;10.95;;
31095;SDS011;17749;51.962;8.560;2023-05-10T13:18:14;14.27;;;9.25;;
31095;SDS011;17749;51.962;8.560;2023-05-10T13:20:41;14.50;;;9.55;;
31095;SDS011;17749;51.962;8.560;2023-05-10T13:23:09;14.35;;;9.38;;
31095;SDS011;17749;51.962;8.560;2023-05-10T13:25:36;15.80;;;9.25;;
31095;SDS011;17749;51.962;8.560;2023-05-10T13:28:03;13.60;;;10.02;;
31095;SDS011;17749;51.962;8.560;2023-05-10T13:30:30;21.80;;;12.63;;
31095;SDS011;17749;51.962;8.560;2023-05-10T13:32:57;19.10;;;12.68;;
31095;SDS011;17749;51.962;8.560;2023-05-10T13:35:24;21.05;;;13.18;;
31095;SDS011;17749;51.962;8.560;2023-05-10T13:37:51;20.00;;;12.40;;
31095;SDS011;17749;51.962;8.560;2023-05-10T13:40:20;19.02;;;12.45;;
31095;SDS011;17749;51.962;8.560;2023-05-10T13:42:46;12.45;;;8.18;;
31095;SDS011;17749;51.962;8.560;2023-05-10T13:45:13;12.35;;;6.32;;
31095;SDS011;17749;51.962;8.560;2023-05-10T13:47:41;8.55;;;4.43;;
31095;SDS011;17749;51.962;8.560;2023-05-10T13:50:08;6.55;;;3.50;;
31095;SDS011;17749;51.962;8.560;2023-05-10T13:52:35;3.78;;;2.65;;
31095;SDS011;17749;51.962;8.560;2023-05-10T13:55:02;4.13;;;2.83;;
31095;SDS011;17749;51.962;8.560;2023-05-10T13:57:29;6.53;;;3.28;;
31095;SDS011;17749;51.962;8.560;2023-05-10T13:59:56;5.55;;;3.42;;
31095;SDS011;17749;51.962;8.560;2023-05-10T14:02:24;6.53;;;4.45;;
31095;SDS011;17749;51.962;8.560;2023-05-10T14:04:51;7.88;;;4.72;;
31095;SDS011;17749;51.962;8.560;2023-05-10T14:07:18;9.85;;;5.20;;
31095;SDS011;17749;51.962;8.560;2023-05-10T14:09:45;6.32;;;4.57;;
31095;SDS011;17749;51.962;8.560;2023-05-10T14:12:12;7.43;;;5.07;;
31095;SDS011;17749;51.962;8.560;2023-05-10T14:14:41;7.32;;;5.40;;
31095;SDS011;17749;51.962;8.560;2023-05-10T14:17:07;8.50;;;5.55;;
31095;SDS011;17749;51.962;8.560;2023-05-10T14:19:37;6.60;;;4.68;;
31095;SDS011;17749;51.962;8.560;2023-05-10T14:22:05;8.18;;;5.13;;
31095;SDS011;17749;51.962;8.560;2023-05-10T14:24:32;7.72;;;5.15;;
31095;SDS011;17749;51.962;8.560;2023-05-10T14:26:59;7.22;;;5.13;;
31095;SDS011;17749;51.962;8.560;2023-05-10T14:29:26;8.20;;;5.90;;
31095;SDS011;17749;51.962;8.560;2023-05-10T14:31:53;7.07;;;5.95;;
31095;SDS011;17749;51.962;8.560;2023-05-10T14:34:21;9.07;;;6.95;;
31095;SDS011;17749;51.962;8.560;2023-05-10T14:36:48;8.00;;;5.95;;
31095;SDS011;17749;51.962;8.560;2023-05-10T14:39:15;9.15;;;5.18;;
31095;SDS011;17749;51.962;8.560;2023-05-10T14:41:42;8.95;;;5.63;;
31095;SDS011;17749;51.962;8.560;2023-05-10T14:44:11;8.85;;;5.82;;
31095;SDS011;17749;51.962;8.560;2023-05-10T14:46:38;6.72;;;4.97;;
31095;SDS011;17749;51.962;8.560;2023-05-10T14:49:05;12.27;;;6.15;;
31095;SDS011;17749;51.962;8.560;2023-05-10T14:51:32;9.32;;;6.15;;
31095;SDS011;17749;51.962;8.560;2023-05-10T14:53:59;12.70;;;7.63;;
31095;SDS011;17749;51.962;8.560;2023-05-10T14:56:27;10.05;;;6.45;;
31095;SDS011;17749;51.962;8.560;2023-05-10T14:58:54;10.07;;;6.25;;
31095;SDS011;17749;51.962;8.560;2023-05-10T15:01:21;11.73;;;7.40;;
31095;SDS011;17749;51.962;8.560;2023-05-10T15:03:49;14.25;;;7.30;;
31095;SDS011;17749;51.962;8.560;2023-05-10T15:06:17;11.88;;;7.00;;
31095;SDS011;17749;51.962;8.560;2023-05-10T15:08:50;14.38;;;7.55;;
31095;SDS011;17749;51.962;8.560;2023-05-10T15:11:17;12.85;;;7.50;;
31095;SDS011;17749;51.962;8.560;2023-05-10T15:13:44;14.82;;;8.30;;
31095;SDS011;17749;51.962;8.560;2023-05-10T15:16:10;12.45;;;7.57;;
31095;SDS011;17749;51.962;8.560;2023-05-10T15:18:37;10.20;;;7.45;;
31095;SDS011;17749;51.962;8.560;2023-05-10T15:21:04;11.07;;;8.65;;
31095;SDS011;17749;51.962;8.560;2023-05-10T15:23:31;15.57;;;9.93;;
31095;SDS011;17749;51.962;8.560;2023-05-10T15:25:59;13.60;;;8.93;;
31095;SDS011;17749;51.962;8.560;2023-05-10T15:28:26;11.98;;;8.20;;
31095;SDS011;17749;51.962;8.560;2023-05-10T15:30:53;17.67;;;9.23;;
31095;SDS011;17749;51.962;8.560;2023-05-10T15:33:21;12.77;;;7.15;;
31095;SDS011;17749;51.962;8.560;2023-05-10T15:35:47;13.38;;;7.97;;
31095;SDS011;17749;51.962;8.560;2023-05-10T15:38:14;10.60;;;7.85;;
31095;SDS011;17749;51.962;8.560;2023-05-10T15:40:41;12.70;;;8.40;;
31095;SDS011;17749;51.962;8.560;2023-05-10T15:43:08;12.13;;;7.70;;
31095;SDS011;17749;51.962;8.560;2023-05-10T15:45:35;10.93;;;7.43;;
31095;SDS011;17749;51.962;8.560;2023-05-10T15:48:03;10.80;;;7.88;;
31095;SDS011;17749;51.962;8.560;2023-05-10T15:50:30;12.75;;;7.60;;
31095;SDS011;17749;51.962;8.560;2023-05-10T15:52:57;13.05;;;9.25;;
31095;SDS011;17749;51.962;8.560;2023-05-10T15:55:24;14.15;;;8.68;;
31095;SDS011;17749;51.962;8.560;2023-05-10T15:57:51;13.38;;;8.98;;
31095;SDS011;17749;51.962;8.560;2023-05-10T16:00:18;14.93;;;10.32;;
31095;SDS011;17749;51.962;8.560;2023-05-10T16:02:45;15.45;;;10.50;;
31095;SDS011;17749;51.962;8.560;2023-05-10T16:05:12;15.73;;;10.40;;
31095;SDS011;17749;51.962;8.560;2023-05-10T16:07:40;17.58;;;10.52;;
31095;SDS011;17749;51.962;8.560;2023-05-10T16:10:08;18.67;;;11.50;;
31095;SDS011;17749;51.962;8.560;2023-05-10T16:12:36;18.80;;;11.40;;
31095;SDS011;17749;51.962;8.560;2023-05-10T16:15:04;19.70;;;11.73;;
31095;SDS011;17749;51.962;8.560;2023-05-10T16:17:31;25.10;;;13.82;;
31095;SDS011;17749;51.962;8.560;2023-05-10T16:19:58;16.80;;;11.23;;
31095;SDS011;17749;51.962;8.560;2023-05-10T16:22:26;21.25;;;13.52;;
31095;SDS011;17749;51.962;8.560;2023-05-10T16:24:55;20.40;;;13.73;;
31095;SDS011;17749;51.962;8.560;2023-05-10T16:27:22;22.73;;;12.25;;
31095;SDS011;17749;51.962;8.560;2023-05-10T16:29:49;17.63;;;11.30;;
31095;SDS011;17749;51.962;8.560;2023-05-10T16:32:16;13.13;;;8.38;;
31095;SDS011;17749;51.962;8.560;2023-05-10T16:34:43;13.60;;;8.32;;
31095;SDS011;17749;51.962;8.560;2023-05-10T16:37:10;13.77;;;9.77;;
31095;SDS011;17749;51.962;8.560;2023-05-10T16:39:37;13.68;;;8.57;;
31095;SDS011;17749;51.962;8.560;2023-05-10T16:42:04;13.20;;;8.85;;
31095;SDS011;17749;51.962;8.560;2023-05-10T16:44:31;14.05;;;7.72;;
31095;SDS011;17749;51.962;8.560;2023-05-10T16:46:58;12.13;;;7.95;;
31095;SDS011;17749;51.962;8.560;2023-05-10T16:49:25;13.55;;;7.95;;
31095;SDS011;17749;51.962;8.560;2023-05-10T16:51:52;13.85;;;8.68;;
31095;SDS011;17749;51.962;8.560;2023-05-10T16:54:19;13.07;;;7.80;;
31095;SDS011;17749;51.962;8.560;2023-05-10T16:56:47;10.23;;;7.47;;
31095;SDS011;17749;51.962;8.560;2023-05-10T16:59:14;11.63;;;7.15;;
31095;SDS011;17749;51.962;8.560;2023-05-10T17:01:42;10.70;;;6.60;;
31095;SDS011;17749;51.962;8.560;2023-05-10T17:04:09;13.48;;;7.18;;
31095;SDS011;17749;51.962;8.560;2023-05-10T17:06:36;10.23;;;5.85;;
31095;SDS011;17749;51.962;8.560;2023-05-10T17:09:03;11.35;;;6.88;;
31095;SDS011;17749;51.962;8.560;2023-05-10T17:11:31;14.27;;;7.30;;
31095;SDS011;17749;51.962;8.560;2023-05-10T17:13:58;11.85;;;6.28;;
31095;SDS011;17749;51.962;8.560;2023-05-10T17:16:26;8.80;;;5.63;;
31095;SDS011;17749;51.962;8.560;2023-05-10T17:18:54;8.38;;;5.30;;
31095;SDS011;17749;51.962;8.560;2023-05-10T17:21:22;8.68;;;5.97;;
31095;SDS011;17749;51.962;8.560;2023-05-10T17:23:49;9.18;;;5.43;;
31095;SDS011;17749;51.962;8.560;2023-05-10T17:26:16;8.70;;;5.88;;
31095;SDS011;17749;51.962;8.560;2023-05-10T17:28:42;9.23;;;4.95;;
31095;SDS011;17749;51.962;8.560;2023-05-10T17:31:09;8.52;;;5.35;;
31095;SDS011;17749;51.962;8.560;2023-05-10T17:33:37;7.60;;;4.85;;
31095;SDS011;17749;51.962;8.560;2023-05-10T17:36:04;7.63;;;4.82;;
31095;SDS011;17749;51.962;8.560;2023-05-10T17:38:31;6.82;;;4.70;;
31095;SDS011;17749;51.962;8.560;2023-05-10T17:40:58;7.00;;;4.57;;
31095;SDS011;17749;51.962;8.560;2023-05-10T17:43:25;7.68;;;4.90;;
31095;SDS011;17749;51.962;8.560;2023-05-10T17:45:52;5.70;;;4.28;;
31095;SDS011;17749;51.962;8.560;2023-05-10T17:48:19;8.13;;;5.28;;
31095;SDS011;17749;51.962;8.560;2023-05-10T17:50:48;7.90;;;5.07;;
31095;SDS011;17749;51.962;8.560;2023-05-10T17:53:15;8.88;;;5.25;;
31095;SDS011;17749;51.962;8.560;2023-05-10T17:55:42;8.85;;;4.95;;
31095;SDS011;17749;51.962;8.560;2023-05-10T17:58:10;9.02;;;5.22;;
31095;SDS011;17749;51.962;8.560;2023-05-10T18:00:37;9.93;;;5.78;;
31095;SDS011;17749;51.962;8.560;2023-05-10T18:03:05;9.80;;;4.95;;
31095;SDS011;17749;51.962;8.560;2023-05-10T18:05:35;6.47;;;5.15;;
31095;SDS011;17749;51.962;8.560;2023-05-10T18:08:03;8.25;;;5.32;;
31095;SDS011;17749;51.962;8.560;2023-05-10T18:10:31;7.82;;;4.88;;
31095;SDS011;17749;51.962;8.560;2023-05-10T18:12:58;7.90;;;5.20;;
31095;SDS011;17749;51.962;8.560;2023-05-10T18:15:26;9.02;;;5.35;;
31095;SDS011;17749;51.962;8.560;2023-05-10T18:17:53;7.15;;;5.22;;
31095;SDS011;17749;51.962;8.560;2023-05-10T18:20:21;7.22;;;5.00;;
31095;SDS011;17749;51.962;8.560;2023-05-10T18:22:48;7.88;;;5.03;;
31095;SDS011;17749;51.962;8.560;2023-05-10T18:25:15;9.00;;;5.50;;
31095;SDS011;17749;51.962;8.560;2023-05-10T18:27:42;10.30;;;5.63;;
31095;SDS011;17749;51.962;8.560;2023-05-10T18:30:09;8.30;;;6.03;;
31095;SDS011;17749;51.962;8.560;2023-05-10T18:32:38;8.32;;;5.78;;
31095;SDS011;17749;51.962;8.560;2023-05-10T18:35:05;8.43;;;5.63;;
31095;SDS011;17749;51.962;8.560;2023-05-10T18:37:33;8.82;;;5.53;;
31095;SDS011;17749;51.962;8.560;2023-05-10T18:40:00;8.60;;;6.13;;
31095;SDS011;17749;51.962;8.560;2023-05-10T18:42:27;9.73;;;5.63;;
31095;SDS011;17749;51.962;8.560;2023-05-10T18:44:54;9.77;;;6.55;;
31095;SDS011;17749;51.962;8.560;2023-05-10T18:47:21;9.13;;;6.00;;
31095;SDS011;17749;51.962;8.560;2023-05-10T18:49:48;10.18;;;6.28;;
31095;SDS011;17749;51.962;8.560;2023-05-10T18:52:15;9.80;;;6.03;;
31095;SDS011;17749;51.962;8.560;2023-05-10T18:54:42;12.82;;;6.28;;
31095;SDS011;17749;51.962;8.560;2023-05-10T18:57:09;15.15;;;7.70;;
31095;SDS011;17749;51.962;8.560;2023-05-10T18:59:37;12.32;;;7.03;;
31095;SDS011;17749;51.962;8.560;2023-05-10T19:02:04;11.45;;;8.27;;
31095;SDS011;17749;51.962;8.560;2023-05-10T19:04:31;10.98;;;7.35;;
31095;SDS011;17749;51.962;8.560;2023-05-10T19:06:58;9.48;;;7.47;;
31095;SDS011;17749;51.962;8.560;2023-05-10T19:09:27;9.20;;;6.55;;
31095;SDS011;17749;51.962;8.560;2023-05-10T19:11:54;8.70;;;6.20;;
31095;SDS011;17749;51.962;8.560;2023-05-10T19:14:21;9.93;;;5.80;;
31095;SDS011;17749;51.962;8.560;2023-05-10T19:16:48;8.02;;;5.90;;
31095;SDS011;17749;51.962;8.560;2023-05-10T19:19:16;9.32;;;6.22;;
31095;SDS011;17749;51.962;8.560;2023-05-10T19:21:43;10.85;;;6.25;;
31095;SDS011;17749;51.962;8.560;2023-05-10T19:24:10;11.93;;;6.22;;
31095;SDS011;17749;51.962;8.560;2023-05-10T19:26:37;13.40;;;7.18;;
31095;SDS011;17749;51.962;8.560;2023-05-10T19:29:04;9.60;;;6.95;;
31095;SDS011;17749;51.962;8.560;2023-05-10T19:31:31;11.57;;;7.13;;
31095;SDS011;17749;51.962;8.560;2023-05-10T19:34:01;12.10;;;6.95;;
31095;SDS011;17749;51.962;8.560;2023-05-10T19:36:31;12.27;;;7.95;;
31095;SDS011;17749;51.962;8.560;2023-05-10T19:38:59;13.02;;;8.40;;
31095;SDS011;17749;51.962;8.560;2023-05-10T19:41:26;13.52;;;8.40;;
31095;SDS011;17749;51.962;8.560;2023-05-10T19:43:53;13.40;;;8.60;;
31095;SDS011;17749;51.962;8.560;2023-05-10T19:46:20;11.98;;;8.00;;
31095;SDS011;17749;51.962;8.560;2023-05-10T19:48:47;13.70;;;9.15;;
31095;SDS011;17749;51.962;8.560;2023-05-10T19:51:16;14.30;;;9.25;;
31095;SDS011;17749;51.962;8.560;2023-05-10T19:53:43;14.07;;;9.00;;
31095;SDS011;17749;51.962;8.560;2023-05-10T19:56:10;16.17;;;9.07;;
31095;SDS011;17749;51.962;8.560;2023-05-10T19:58:38;12.90;;;9.27;;
31095;SDS011;17749;51.962;8.560;2023-05-10T20:01:05;13.20;;;8.52;;
31095;SDS011;17749;51.962;8.560;2023-05-10T20:03:33;14.13;;;8.70;;
31095;SDS011;17749;51.962;8.560;2023-05-10T20:06:01;13.93;;;9.13;;